sensor_id;sensor_type;location;lat;lon;timestamp;temperature;humidity
21207;DHT22;10761;48.532;8.026;2023-04-03T00:01:29;5.10;1.00
21207;DHT22;10761;48.532;8.026;2023-04-03T00:03:54;5.20;99.90
21207;DHT22;10761;48.532;8.026;2023-04-03T00:06:21;5.30;99.90
21207;DHT22;10761;48.532;8.026;2023-04-03T00:08:47;5.30;91.50
21207;DHT22;10761;48.532;8.026;2023-04-03T00:11:13;5.30;99.90
21207;DHT22;10761;48.532;8.026;2023-04-03T00:13:39;5.30;1.00
21207;DHT22;10761;48.532;8.026;2023-04-03T00:16:06;5.40;88.70
21207;DHT22;10761;48.532;8.026;2023-04-03T00:18:31;5.40;1.00
21207;DHT22;10761;48.532;8.026;2023-04-03T00:20:57;5.40;20.70
21207;DHT22;10761;48.532;8.026;2023-04-03T00:23:23;5.30;99.90
21207;DHT22;10761;48.532;8.026;2023-04-03T00:25:49;5.40;99.90
21207;DHT22;10761;48.532;8.026;2023-04-03T00:28:15;5.40;99.90
21207;DHT22;10761;48.532;8.026;2023-04-03T00:30:41;5.40;1.00
21207;DHT22;10761;48.532;8.026;2023-04-03T00:33:07;5.40;99.90
21207;DHT22;10761;48.532;8.026;2023-04-03T00:35:34;5.40;1.00
21207;DHT22;10761;48.532;8.026;2023-04-03T00:38:00;5.40;1.00
21207;DHT22;10761;48.532;8.026;2023-04-03T00:40:26;5.40;99.90
21207;DHT22;10761;48.532;8.026;2023-04-03T00:42:57;5.40;1.00
21207;DHT22;10761;48.532;8.026;2023-04-03T00:45:38;5.30;1.00
21207;DHT22;10761;48.532;8.026;2023-04-03T00:48:07;5.30;99.90
21207;DHT22;10761;48.532;8.026;2023-04-03T00:50:35;5.30;1.00
21207;DHT22;10761;48.532;8.026;2023-04-03T00:53:02;5.20;1.00
21207;DHT22;10761;48.532;8.026;2023-04-03T00:55:29;5.20;1.00
21207;DHT22;10761;48.532;8.026;2023-04-03T00:57:55;5.20;1.60
21207;DHT22;10761;48.532;8.026;2023-04-03T01:00:22;5.20;99.90
21207;DHT22;10761;48.532;8.026;2023-04-03T01:02:49;5.20;99.90
21207;DHT22;10761;48.532;8.026;2023-04-03T01:05:16;5.20;99.90
21207;DHT22;10761;48.532;8.026;2023-04-03T01:07:42;5.20;1.00
21207;DHT22;10761;48.532;8.026;2023-04-03T01:10:11;5.20;56.80
21207;DHT22;10761;48.532;8.026;2023-04-03T01:12:41;5.10;1.00
21207;DHT22;10761;48.532;8.026;2023-04-03T01:15:16;5.10;1.00
21207;DHT22;10761;48.532;8.026;2023-04-03T01:17:53;5.10;1.00
21207;DHT22;10761;48.532;8.026;2023-04-03T01:25:56;5.10;1.00
21207;DHT22;10761;48.532;8.026;2023-04-03T01:28:26;5.10;1.00
21207;DHT22;10761;48.532;8.026;2023-04-03T01:33:42;5.00;1.00
21207;DHT22;10761;48.532;8.026;2023-04-03T01:36:10;5.10;1.00
21207;DHT22;10761;48.532;8.026;2023-04-03T01:38:38;5.10;1.00
21207;DHT22;10761;48.532;8.026;2023-04-03T01:41:03;5.10;99.90
21207;DHT22;10761;48.532;8.026;2023-04-03T01:43:29;5.10;1.00
21207;DHT22;10761;48.532;8.026;2023-04-03T01:45:54;5.10;1.00
21207;DHT22;10761;48.532;8.026;2023-04-03T01:48:20;5.20;1.00
21207;DHT22;10761;48.532;8.026;2023-04-03T01:50:46;5.10;1.00
21207;DHT22;10761;48.532;8.026;2023-04-03T01:53:12;5.00;1.00
21207;DHT22;10761;48.532;8.026;2023-04-03T01:55:37;5.00;1.00
21207;DHT22;10761;48.532;8.026;2023-04-03T01:58:03;4.90;99.90
21207;DHT22;10761;48.532;8.026;2023-04-03T02:00:29;4.80;21.40
21207;DHT22;10761;48.532;8.026;2023-04-03T02:02:55;4.80;99.90
21207;DHT22;10761;48.532;8.026;2023-04-03T02:05:20;4.80;99.30
21207;DHT22;10761;48.532;8.026;2023-04-03T02:07:46;4.70;44.30
21207;DHT22;10761;48.532;8.026;2023-04-03T02:10:12;4.60;99.90
21207;DHT22;10761;48.532;8.026;2023-04-03T02:12:37;4.50;99.90
21207;DHT22;10761;48.532;8.026;2023-04-03T02:15:03;4.50;1.00
21207;DHT22;10761;48.532;8.026;2023-04-03T02:17:29;4.50;1.00
21207;DHT22;10761;48.532;8.026;2023-04-03T02:19:55;4.40;1.00
21207;DHT22;10761;48.532;8.026;2023-04-03T02:22:20;4.40;99.90
21207;DHT22;10761;48.532;8.026;2023-04-03T02:24:46;4.40;1.00
21207;DHT22;10761;48.532;8.026;2023-04-03T02:27:12;4.30;1.00
21207;DHT22;10761;48.532;8.026;2023-04-03T02:29:37;4.30;1.00
21207;DHT22;10761;48.532;8.026;2023-04-03T02:32:03;4.30;1.00
21207;DHT22;10761;48.532;8.026;2023-04-03T02:34:29;4.30;1.00
21207;DHT22;10761;48.532;8.026;2023-04-03T02:36:55;4.30;1.00
21207;DHT22;10761;48.532;8.026;2023-04-03T02:39:20;4.30;62.30
21207;DHT22;10761;48.532;8.026;2023-04-03T02:41:46;4.30;1.00
21207;DHT22;10761;48.532;8.026;2023-04-03T02:44:13;4.30;1.00
21207;DHT22;10761;48.532;8.026;2023-04-03T02:46:39;4.30;1.00
21207;DHT22;10761;48.532;8.026;2023-04-03T02:49:05;4.30;1.00
21207;DHT22;10761;48.532;8.026;2023-04-03T02:51:31;4.20;1.00
21207;DHT22;10761;48.532;8.026;2023-04-03T02:53:56;4.20;1.00
21207;DHT22;10761;48.532;8.026;2023-04-03T02:56:22;4.20;1.00
21207;DHT22;10761;48.532;8.026;2023-04-03T02:58:48;4.20;1.00
21207;DHT22;10761;48.532;8.026;2023-04-03T03:01:14;4.20;99.90
21207;DHT22;10761;48.532;8.026;2023-04-03T03:03:39;4.20;1.00
21207;DHT22;10761;48.532;8.026;2023-04-03T03:06:07;4.20;99.90
21207;DHT22;10761;48.532;8.026;2023-04-03T03:08:34;4.20;99.90
21207;DHT22;10761;48.532;8.026;2023-04-03T03:11:00;4.20;99.90
21207;DHT22;10761;48.532;8.026;2023-04-03T03:13:26;4.20;99.90
21207;DHT22;10761;48.532;8.026;2023-04-03T03:15:52;4.20;1.00
21207;DHT22;10761;48.532;8.026;2023-04-03T03:18:18;4.20;1.00
21207;DHT22;10761;48.532;8.026;2023-04-03T03:20:44;4.20;1.00
21207;DHT22;10761;48.532;8.026;2023-04-03T03:23:10;4.30;1.00
21207;DHT22;10761;48.532;8.026;2023-04-03T03:25:39;4.30;1.00
21207;DHT22;10761;48.532;8.026;2023-04-03T03:28:05;4.30;1.00
21207;DHT22;10761;48.532;8.026;2023-04-03T03:30:31;4.30;1.00
21207;DHT22;10761;48.532;8.026;2023-04-03T03:32:57;4.30;1.00
21207;DHT22;10761;48.532;8.026;2023-04-03T03:35:22;4.40;1.00
21207;DHT22;10761;48.532;8.026;2023-04-03T03:37:48;4.40;1.00
21207;DHT22;10761;48.532;8.026;2023-04-03T03:40:13;4.40;99.90
21207;DHT22;10761;48.532;8.026;2023-04-03T03:42:39;4.30;1.00
21207;DHT22;10761;48.532;8.026;2023-04-03T03:45:05;4.30;99.90
21207;DHT22;10761;48.532;8.026;2023-04-03T03:47:31;4.30;99.90
21207;DHT22;10761;48.532;8.026;2023-04-03T03:49:57;4.30;99.90
21207;DHT22;10761;48.532;8.026;2023-04-03T03:52:22;4.30;1.00
21207;DHT22;10761;48.532;8.026;2023-04-03T03:54:48;4.30;1.00
21207;DHT22;10761;48.532;8.026;2023-04-03T03:57:14;4.30;53.70
21207;DHT22;10761;48.532;8.026;2023-04-03T03:59:40;4.30;99.90
21207;DHT22;10761;48.532;8.026;2023-04-03T04:02:07;4.20;1.00
21207;DHT22;10761;48.532;8.026;2023-04-03T04:04:33;4.10;1.00
21207;DHT22;10761;48.532;8.026;2023-04-03T04:06:59;4.10;1.00
21207;DHT22;10761;48.532;8.026;2023-04-03T04:09:26;4.10;9.10
21207;DHT22;10761;48.532;8.026;2023-04-03T04:11:52;4.10;91.60
21207;DHT22;10761;48.532;8.026;2023-04-03T04:14:18;4.10;99.90
21207;DHT22;10761;48.532;8.026;2023-04-03T04:16:46;4.00;99.90
21207;DHT22;10761;48.532;8.026;2023-04-03T04:19:12;3.90;1.00
21207;DHT22;10761;48.532;8.026;2023-04-03T04:21:38;3.80;1.00
21207;DHT22;10761;48.532;8.026;2023-04-03T04:24:05;3.80;1.00
21207;DHT22;10761;48.532;8.026;2023-04-03T04:26:31;3.80;1.00
21207;DHT22;10761;48.532;8.026;2023-04-03T04:28:56;3.70;33.00
21207;DHT22;10761;48.532;8.026;2023-04-03T04:31:22;3.70;1.00
21207;DHT22;10761;48.532;8.026;2023-04-03T04:33:47;3.70;99.90
21207;DHT22;10761;48.532;8.026;2023-04-03T04:36:13;3.60;99.90
21207;DHT22;10761;48.532;8.026;2023-04-03T04:38:40;3.60;99.90
21207;DHT22;10761;48.532;8.026;2023-04-03T04:41:06;3.50;99.90
21207;DHT22;10761;48.532;8.026;2023-04-03T04:43:32;3.50;1.00
21207;DHT22;10761;48.532;8.026;2023-04-03T04:46:03;3.60;99.90
21207;DHT22;10761;48.532;8.026;2023-04-03T04:48:28;3.50;1.00
21207;DHT22;10761;48.532;8.026;2023-04-03T04:50:54;3.50;1.00
21207;DHT22;10761;48.532;8.026;2023-04-03T04:53:20;3.40;1.00
21207;DHT22;10761;48.532;8.026;2023-04-03T04:55:45;3.40;99.90
21207;DHT22;10761;48.532;8.026;2023-04-03T04:58:11;3.40;36.00
21207;DHT22;10761;48.532;8.026;2023-04-03T05:00:37;3.40;35.20
21207;DHT22;10761;48.532;8.026;2023-04-03T05:03:02;3.40;99.90
21207;DHT22;10761;48.532;8.026;2023-04-03T05:05:28;3.50;99.90
21207;DHT22;10761;48.532;8.026;2023-04-03T05:07:54;3.50;99.90
21207;DHT22;10761;48.532;8.026;2023-04-03T05:10:19;3.50;99.90
21207;DHT22;10761;48.532;8.026;2023-04-03T05:12:45;3.50;1.00
21207;DHT22;10761;48.532;8.026;2023-04-03T05:15:11;3.60;1.00
21207;DHT22;10761;48.532;8.026;2023-04-03T05:17:37;3.60;99.90
21207;DHT22;10761;48.532;8.026;2023-04-03T05:20:03;3.60;99.90
21207;DHT22;10761;48.532;8.026;2023-04-03T05:22:30;3.60;99.90
21207;DHT22;10761;48.532;8.026;2023-04-03T05:24:56;3.60;99.90
21207;DHT22;10761;48.532;8.026;2023-04-03T05:27:22;3.60;99.90
21207;DHT22;10761;48.532;8.026;2023-04-03T05:29:49;3.50;99.90
21207;DHT22;10761;48.532;8.026;2023-04-03T05:32:15;3.60;99.90
21207;DHT22;10761;48.532;8.026;2023-04-03T05:34:41;3.60;99.90
21207;DHT22;10761;48.532;8.026;2023-04-03T05:37:07;3.60;99.90
21207;DHT22;10761;48.532;8.026;2023-04-03T05:39:33;3.60;1.00
21207;DHT22;10761;48.532;8.026;2023-04-03T05:41:59;3.70;1.00
21207;DHT22;10761;48.532;8.026;2023-04-03T05:44:24;3.80;99.90
21207;DHT22;10761;48.532;8.026;2023-04-03T05:46:50;3.90;1.00
21207;DHT22;10761;48.532;8.026;2023-04-03T05:49:16;4.00;1.00
21207;DHT22;10761;48.532;8.026;2023-04-03T05:51:41;4.20;99.90
21207;DHT22;10761;48.532;8.026;2023-04-03T05:54:13;4.40;99.90
21207;DHT22;10761;48.532;8.026;2023-04-03T05:56:41;4.60;99.90
21207;DHT22;10761;48.532;8.026;2023-04-03T05:59:06;4.70;99.90
21207;DHT22;10761;48.532;8.026;2023-04-03T06:01:33;4.70;99.90
21207;DHT22;10761;48.532;8.026;2023-04-03T06:03:59;4.80;1.00
21207;DHT22;10761;48.532;8.026;2023-04-03T06:06:25;5.00;1.00
21207;DHT22;10761;48.532;8.026;2023-04-03T06:08:51;5.10;1.00
21207;DHT22;10761;48.532;8.026;2023-04-03T06:11:17;5.30;1.00
21207;DHT22;10761;48.532;8.026;2023-04-03T06:13:42;5.30;99.90
21207;DHT22;10761;48.532;8.026;2023-04-03T06:16:12;5.50;99.90
21207;DHT22;10761;48.532;8.026;2023-04-03T06:18:40;5.60;1.00
21207;DHT22;10761;48.532;8.026;2023-04-03T06:21:06;5.70;1.00
21207;DHT22;10761;48.532;8.026;2023-04-03T06:23:33;5.80;1.00
21207;DHT22;10761;48.532;8.026;2023-04-03T06:25:58;5.90;1.00
21207;DHT22;10761;48.532;8.026;2023-04-03T06:28:25;6.30;99.90
21207;DHT22;10761;48.532;8.026;2023-04-03T06:30:50;6.50;99.90
21207;DHT22;10761;48.532;8.026;2023-04-03T06:33:16;6.60;43.00
21207;DHT22;10761;48.532;8.026;2023-04-03T06:35:41;6.60;1.00
21207;DHT22;10761;48.532;8.026;2023-04-03T06:38:07;6.50;1.00
21207;DHT22;10761;48.532;8.026;2023-04-03T06:40:35;6.50;1.00
21207;DHT22;10761;48.532;8.026;2023-04-03T06:43:01;6.90;1.00
21207;DHT22;10761;48.532;8.026;2023-04-03T06:45:26;7.10;1.00
21207;DHT22;10761;48.532;8.026;2023-04-03T06:47:53;7.00;1.00
21207;DHT22;10761;48.532;8.026;2023-04-03T06:50:19;6.90;1.00
21207;DHT22;10761;48.532;8.026;2023-04-03T06:52:45;7.10;1.00
21207;DHT22;10761;48.532;8.026;2023-04-03T06:55:11;7.60;1.00
21207;DHT22;10761;48.532;8.026;2023-04-03T06:57:37;7.80;1.00
21207;DHT22;10761;48.532;8.026;2023-04-03T07:00:04;8.10;1.00
21207;DHT22;10761;48.532;8.026;2023-04-03T07:02:30;8.30;1.00
21207;DHT22;10761;48.532;8.026;2023-04-03T07:04:56;8.30;1.00
21207;DHT22;10761;48.532;8.026;2023-04-03T07:07:21;8.40;99.90
21207;DHT22;10761;48.532;8.026;2023-04-03T07:09:47;8.50;99.90
21207;DHT22;10761;48.532;8.026;2023-04-03T07:12:13;8.40;99.90
21207;DHT22;10761;48.532;8.026;2023-04-03T07:14:39;8.20;99.90
21207;DHT22;10761;48.532;8.026;2023-04-03T07:17:05;8.10;99.90
21207;DHT22;10761;48.532;8.026;2023-04-03T07:19:30;7.80;99.90
21207;DHT22;10761;48.532;8.026;2023-04-03T07:21:56;7.80;99.90
21207;DHT22;10761;48.532;8.026;2023-04-03T07:24:22;7.60;99.90
21207;DHT22;10761;48.532;8.026;2023-04-03T07:26:52;7.60;99.90
21207;DHT22;10761;48.532;8.026;2023-04-03T07:29:18;8.00;99.90
21207;DHT22;10761;48.532;8.026;2023-04-03T07:31:44;8.10;99.90
21207;DHT22;10761;48.532;8.026;2023-04-03T07:34:11;8.40;99.90
21207;DHT22;10761;48.532;8.026;2023-04-03T07:36:37;8.50;99.90
21207;DHT22;10761;48.532;8.026;2023-04-03T07:39:03;8.30;99.90
21207;DHT22;10761;48.532;8.026;2023-04-03T07:41:28;8.30;99.90
21207;DHT22;10761;48.532;8.026;2023-04-03T07:43:54;8.10;99.90
21207;DHT22;10761;48.532;8.026;2023-04-03T07:46:22;8.00;99.90
21207;DHT22;10761;48.532;8.026;2023-04-03T07:48:48;8.00;99.90
21207;DHT22;10761;48.532;8.026;2023-04-03T07:51:13;8.30;99.90
21207;DHT22;10761;48.532;8.026;2023-04-03T07:53:40;8.80;99.90
21207;DHT22;10761;48.532;8.026;2023-04-03T07:56:06;9.10;99.90
21207;DHT22;10761;48.532;8.026;2023-04-03T07:58:32;8.80;99.90
21207;DHT22;10761;48.532;8.026;2023-04-03T08:00:58;8.20;99.90
21207;DHT22;10761;48.532;8.026;2023-04-03T08:03:24;7.80;99.90
21207;DHT22;10761;48.532;8.026;2023-04-03T08:05:50;7.50;99.90
21207;DHT22;10761;48.532;8.026;2023-04-03T08:08:19;7.50;99.90
21207;DHT22;10761;48.532;8.026;2023-04-03T08:10:51;7.50;99.90
21207;DHT22;10761;48.532;8.026;2023-04-03T08:13:17;7.30;99.90
21207;DHT22;10761;48.532;8.026;2023-04-03T08:15:43;7.40;99.90
21207;DHT22;10761;48.532;8.026;2023-04-03T08:18:09;7.10;99.90
21207;DHT22;10761;48.532;8.026;2023-04-03T08:20:34;6.90;99.90
21207;DHT22;10761;48.532;8.026;2023-04-03T08:23:00;7.20;99.90
21207;DHT22;10761;48.532;8.026;2023-04-03T08:25:26;7.60;99.90
21207;DHT22;10761;48.532;8.026;2023-04-03T08:27:51;7.70;99.90
21207;DHT22;10761;48.532;8.026;2023-04-03T08:30:17;7.20;99.90
21207;DHT22;10761;48.532;8.026;2023-04-03T08:32:42;6.90;99.90
21207;DHT22;10761;48.532;8.026;2023-04-03T08:35:09;6.90;99.90
21207;DHT22;10761;48.532;8.026;2023-04-03T08:37:36;7.00;99.90
21207;DHT22;10761;48.532;8.026;2023-04-03T08:40:04;7.40;99.90
21207;DHT22;10761;48.532;8.026;2023-04-03T08:42:51;7.30;99.90
21207;DHT22;10761;48.532;8.026;2023-04-03T08:45:48;7.50;99.90
21207;DHT22;10761;48.532;8.026;2023-04-03T08:48:27;8.20;99.90
21207;DHT22;10761;48.532;8.026;2023-04-03T08:51:00;8.70;99.90
21207;DHT22;10761;48.532;8.026;2023-04-03T08:53:31;8.90;99.90
21207;DHT22;10761;48.532;8.026;2023-04-03T08:56:04;9.10;99.90
21207;DHT22;10761;48.532;8.026;2023-04-03T08:58:33;9.60;99.90
21207;DHT22;10761;48.532;8.026;2023-04-03T09:01:35;10.60;99.90
21207;DHT22;10761;48.532;8.026;2023-04-03T09:04:02;10.40;99.90
21207;DHT22;10761;48.532;8.026;2023-04-03T09:06:34;9.60;99.90
21207;DHT22;10761;48.532;8.026;2023-04-03T09:09:13;8.80;99.90
21207;DHT22;10761;48.532;8.026;2023-04-03T09:12:06;8.10;99.90
21207;DHT22;10761;48.532;8.026;2023-04-03T09:17:38;7.60;99.90
21207;DHT22;10761;48.532;8.026;2023-04-03T09:20:46;7.60;99.90
21207;DHT22;10761;48.532;8.026;2023-04-03T09:23:50;7.80;99.90
21207;DHT22;10761;48.532;8.026;2023-04-03T09:29:21;7.70;99.90
21207;DHT22;10761;48.532;8.026;2023-04-03T09:32:26;8.00;99.90
21207;DHT22;10761;48.532;8.026;2023-04-03T09:34:41;8.10;99.90
21207;DHT22;10761;48.532;8.026;2023-04-03T09:37:08;8.10;99.90
21207;DHT22;10761;48.532;8.026;2023-04-03T09:40:04;7.90;99.90
21207;DHT22;10761;48.532;8.026;2023-04-03T09:42:31;7.70;99.90
21207;DHT22;10761;48.532;8.026;2023-04-03T09:47:27;7.70;99.90
21207;DHT22;10761;48.532;8.026;2023-04-03T09:52:39;7.80;99.90
21207;DHT22;10761;48.532;8.026;2023-04-03T09:57:45;7.70;99.90
21207;DHT22;10761;48.532;8.026;2023-04-03T10:02:50;7.90;99.90
21207;DHT22;10761;48.532;8.026;2023-04-03T10:05:41;7.90;99.90
21207;DHT22;10761;48.532;8.026;2023-04-03T10:08:28;8.40;99.90
21207;DHT22;10761;48.532;8.026;2023-04-03T10:11:17;8.80;99.90
21207;DHT22;10761;48.532;8.026;2023-04-03T10:14:00;8.90;99.90
21207;DHT22;10761;48.532;8.026;2023-04-03T10:16:38;8.60;99.90
21207;DHT22;10761;48.532;8.026;2023-04-03T10:19:51;8.40;99.90
21207;DHT22;10761;48.532;8.026;2023-04-03T10:33:36;9.40;99.90
21207;DHT22;10761;48.532;8.026;2023-04-03T10:42:02;8.80;99.90
21207;DHT22;10761;48.532;8.026;2023-04-03T10:50:00;8.10;99.90
21207;DHT22;10761;48.532;8.026;2023-04-03T10:52:40;8.00;99.90
21207;DHT22;10761;48.532;8.026;2023-04-03T10:58:50;7.90;99.90
21207;DHT22;10761;48.532;8.026;2023-04-03T11:01:21;7.70;99.90
21207;DHT22;10761;48.532;8.026;2023-04-03T11:03:52;7.70;99.90
21207;DHT22;10761;48.532;8.026;2023-04-03T11:06:19;7.80;99.90
21207;DHT22;10761;48.532;8.026;2023-04-03T11:08:53;7.80;99.90
21207;DHT22;10761;48.532;8.026;2023-04-03T11:11:29;8.00;99.90
21207;DHT22;10761;48.532;8.026;2023-04-03T11:14:01;8.10;99.90
21207;DHT22;10761;48.532;8.026;2023-04-03T11:16:30;8.00;99.90
21207;DHT22;10761;48.532;8.026;2023-04-03T11:19:03;7.90;99.90
21207;DHT22;10761;48.532;8.026;2023-04-03T11:21:57;7.80;99.90
21207;DHT22;10761;48.532;8.026;2023-04-03T11:24:29;7.70;99.90
21207;DHT22;10761;48.532;8.026;2023-04-03T11:26:58;7.70;99.90
21207;DHT22;10761;48.532;8.026;2023-04-03T11:29:29;7.80;99.90
21207;DHT22;10761;48.532;8.026;2023-04-03T11:34:43;7.80;99.90
21207;DHT22;10761;48.532;8.026;2023-04-03T11:37:17;7.90;99.90
21207;DHT22;10761;48.532;8.026;2023-04-03T11:40:18;8.00;99.90
21207;DHT22;10761;48.532;8.026;2023-04-03T11:42:41;8.10;99.90
21207;DHT22;10761;48.532;8.026;2023-04-03T11:53:10;8.50;99.90
21207;DHT22;10761;48.532;8.026;2023-04-03T11:58:18;9.40;99.90
21207;DHT22;10761;48.532;8.026;2023-04-03T12:05:56;8.50;99.90
21207;DHT22;10761;48.532;8.026;2023-04-03T12:13:40;7.80;99.90
21207;DHT22;10761;48.532;8.026;2023-04-03T12:16:30;7.80;99.90
21207;DHT22;10761;48.532;8.026;2023-04-03T12:34:56;8.60;99.90
21207;DHT22;10761;48.532;8.026;2023-04-03T12:45:58;9.40;99.90
21207;DHT22;10761;48.532;8.026;2023-04-03T12:48:27;10.40;99.90
21207;DHT22;10761;48.532;8.026;2023-04-03T12:50:54;10.80;99.90
21207;DHT22;10761;48.532;8.026;2023-04-03T12:53:32;10.70;99.90
21207;DHT22;10761;48.532;8.026;2023-04-03T12:56:19;10.70;99.90
21207;DHT22;10761;48.532;8.026;2023-04-03T12:58:49;10.30;99.90
21207;DHT22;10761;48.532;8.026;2023-04-03T13:01:17;10.00;99.90
21207;DHT22;10761;48.532;8.026;2023-04-03T13:03:47;9.60;99.90
21207;DHT22;10761;48.532;8.026;2023-04-03T13:08:53;9.40;99.90
21207;DHT22;10761;48.532;8.026;2023-04-03T13:11:20;9.40;99.90
21207;DHT22;10761;48.532;8.026;2023-04-03T13:13:58;9.30;99.90
21207;DHT22;10761;48.532;8.026;2023-04-03T13:16:24;8.80;99.90
21207;DHT22;10761;48.532;8.026;2023-04-03T13:18:51;8.60;99.90
21207;DHT22;10761;48.532;8.026;2023-04-03T13:21:23;8.70;99.90
21207;DHT22;10761;48.532;8.026;2023-04-03T13:23:53;8.80;99.90
21207;DHT22;10761;48.532;8.026;2023-04-03T13:26:21;8.80;99.90
21207;DHT22;10761;48.532;8.026;2023-04-03T13:28:47;8.90;99.90
21207;DHT22;10761;48.532;8.026;2023-04-03T13:34:07;9.10;99.90
21207;DHT22;10761;48.532;8.026;2023-04-03T13:36:42;8.80;99.90
21207;DHT22;10761;48.532;8.026;2023-04-03T13:41:40;8.50;99.90
21207;DHT22;10761;48.532;8.026;2023-04-03T13:44:28;8.40;99.90
21207;DHT22;10761;48.532;8.026;2023-04-03T13:47:01;8.30;99.90
21207;DHT22;10761;48.532;8.026;2023-04-03T13:50:24;8.10;99.90
21207;DHT22;10761;48.532;8.026;2023-04-03T13:52:40;8.30;99.90
21207;DHT22;10761;48.532;8.026;2023-04-03T13:58:25;8.40;99.90
21207;DHT22;10761;48.532;8.026;2023-04-03T14:01:17;8.50;99.90
21207;DHT22;10761;48.532;8.026;2023-04-03T14:03:44;8.50;99.90
21207;DHT22;10761;48.532;8.026;2023-04-03T14:06:13;8.60;99.90
21207;DHT22;10761;48.532;8.026;2023-04-03T14:08:39;8.60;99.90
21207;DHT22;10761;48.532;8.026;2023-04-03T14:11:05;8.50;99.90
21207;DHT22;10761;48.532;8.026;2023-04-03T14:13:31;8.40;99.90
21207;DHT22;10761;48.532;8.026;2023-04-03T14:15:57;8.30;99.90
21207;DHT22;10761;48.532;8.026;2023-04-03T14:18:22;8.30;99.90
21207;DHT22;10761;48.532;8.026;2023-04-03T14:20:48;8.30;99.90
21207;DHT22;10761;48.532;8.026;2023-04-03T14:23:14;8.20;99.90
21207;DHT22;10761;48.532;8.026;2023-04-03T14:25:41;8.10;99.90
21207;DHT22;10761;48.532;8.026;2023-04-03T14:28:18;8.20;99.90
21207;DHT22;10761;48.532;8.026;2023-04-03T14:30:45;8.40;99.90
21207;DHT22;10761;48.532;8.026;2023-04-03T14:33:15;8.40;99.90
21207;DHT22;10761;48.532;8.026;2023-04-03T14:35:41;8.10;99.90
21207;DHT22;10761;48.532;8.026;2023-04-03T14:38:33;8.00;99.90
21207;DHT22;10761;48.532;8.026;2023-04-03T14:40:59;7.80;99.90
21207;DHT22;10761;48.532;8.026;2023-04-03T14:43:24;7.70;99.90
21207;DHT22;10761;48.532;8.026;2023-04-03T14:45:51;7.60;99.90
21207;DHT22;10761;48.532;8.026;2023-04-03T14:48:30;7.50;99.90
21207;DHT22;10761;48.532;8.026;2023-04-03T14:50:56;7.50;99.90
21207;DHT22;10761;48.532;8.026;2023-04-03T14:53:22;7.60;99.90
21207;DHT22;10761;48.532;8.026;2023-04-03T14:55:50;7.80;99.90
21207;DHT22;10761;48.532;8.026;2023-04-03T14:58:18;9.10;99.90
21207;DHT22;10761;48.532;8.026;2023-04-03T15:00:44;10.90;99.90
21207;DHT22;10761;48.532;8.026;2023-04-03T15:03:14;10.80;99.90
21207;DHT22;10761;48.532;8.026;2023-04-03T15:05:41;10.10;99.00
21207;DHT22;10761;48.532;8.026;2023-04-03T15:08:17;9.60;99.90
21207;DHT22;10761;48.532;8.026;2023-04-03T15:10:44;8.90;99.90
21207;DHT22;10761;48.532;8.026;2023-04-03T15:13:12;8.40;99.90
21207;DHT22;10761;48.532;8.026;2023-04-03T15:15:37;8.10;99.90
21207;DHT22;10761;48.532;8.026;2023-04-03T15:18:03;7.90;99.90
21207;DHT22;10761;48.532;8.026;2023-04-03T15:20:30;7.90;99.90
21207;DHT22;10761;48.532;8.026;2023-04-03T15:22:59;7.80;99.90
21207;DHT22;10761;48.532;8.026;2023-04-03T15:25:28;7.70;99.90
21207;DHT22;10761;48.532;8.026;2023-04-03T15:27:55;7.60;99.90
21207;DHT22;10761;48.532;8.026;2023-04-03T15:30:21;8.20;99.90
21207;DHT22;10761;48.532;8.026;2023-04-03T15:32:47;10.00;99.90
21207;DHT22;10761;48.532;8.026;2023-04-03T15:35:13;11.80;99.90
21207;DHT22;10761;48.532;8.026;2023-04-03T15:37:39;13.30;58.00
21207;DHT22;10761;48.532;8.026;2023-04-03T15:40:06;13.10;21.30
21207;DHT22;10761;48.532;8.026;2023-04-03T15:42:32;12.00;15.70
21207;DHT22;10761;48.532;8.026;2023-04-03T15:44:58;10.60;19.00
21207;DHT22;10761;48.532;8.026;2023-04-03T15:47:25;9.50;28.70
21207;DHT22;10761;48.532;8.026;2023-04-03T15:49:51;9.20;38.70
21207;DHT22;10761;48.532;8.026;2023-04-03T15:52:17;9.00;80.80
21207;DHT22;10761;48.532;8.026;2023-04-03T15:54:43;8.70;57.50
21207;DHT22;10761;48.532;8.026;2023-04-03T15:57:08;8.40;63.20
21207;DHT22;10761;48.532;8.026;2023-04-03T15:59:34;8.10;57.80
21207;DHT22;10761;48.532;8.026;2023-04-03T16:02:01;7.90;70.70
21207;DHT22;10761;48.532;8.026;2023-04-03T16:04:29;7.70;77.30
21207;DHT22;10761;48.532;8.026;2023-04-03T16:06:55;7.60;87.90
21207;DHT22;10761;48.532;8.026;2023-04-03T16:09:21;7.60;89.20
21207;DHT22;10761;48.532;8.026;2023-04-03T16:11:47;8.00;94.30
21207;DHT22;10761;48.532;8.026;2023-04-03T16:14:12;9.40;88.40
21207;DHT22;10761;48.532;8.026;2023-04-03T16:16:38;10.90;60.40
21207;DHT22;10761;48.532;8.026;2023-04-03T16:19:05;11.50;33.00
21207;DHT22;10761;48.532;8.026;2023-04-03T16:21:32;10.60;27.00
21207;DHT22;10761;48.532;8.026;2023-04-03T16:23:58;9.80;38.90
21207;DHT22;10761;48.532;8.026;2023-04-03T16:26:24;8.90;48.90
21207;DHT22;10761;48.532;8.026;2023-04-03T16:28:51;8.40;51.80
21207;DHT22;10761;48.532;8.026;2023-04-03T16:31:16;7.90;55.70
21207;DHT22;10761;48.532;8.026;2023-04-03T16:33:42;7.80;53.70
21207;DHT22;10761;48.532;8.026;2023-04-03T16:36:08;8.70;48.90
21207;DHT22;10761;48.532;8.026;2023-04-03T16:38:33;9.60;27.00
21207;DHT22;10761;48.532;8.026;2023-04-03T16:40:59;9.40;27.90
21207;DHT22;10761;48.532;8.026;2023-04-03T16:43:30;8.70;22.00
21207;DHT22;10761;48.532;8.026;2023-04-03T16:45:55;8.20;25.10
21207;DHT22;10761;48.532;8.026;2023-04-03T16:48:21;7.90;35.90
21207;DHT22;10761;48.532;8.026;2023-04-03T16:50:47;7.60;41.70
21207;DHT22;10761;48.532;8.026;2023-04-03T16:53:14;7.50;41.90
21207;DHT22;10761;48.532;8.026;2023-04-03T16:55:40;7.40;53.40
21207;DHT22;10761;48.532;8.026;2023-04-03T16:58:06;7.20;62.00
21207;DHT22;10761;48.532;8.026;2023-04-03T17:00:32;7.10;69.10
21207;DHT22;10761;48.532;8.026;2023-04-03T17:02:57;7.00;83.10
21207;DHT22;10761;48.532;8.026;2023-04-03T17:05:23;6.90;84.20
21207;DHT22;10761;48.532;8.026;2023-04-03T17:07:50;6.80;89.10
21207;DHT22;10761;48.532;8.026;2023-04-03T17:10:15;6.70;98.90
21207;DHT22;10761;48.532;8.026;2023-04-03T17:12:41;6.60;94.40
21207;DHT22;10761;48.532;8.026;2023-04-03T17:15:07;6.60;95.90
21207;DHT22;10761;48.532;8.026;2023-04-03T17:17:33;6.50;90.20
21207;DHT22;10761;48.532;8.026;2023-04-03T17:19:59;6.50;91.80
21207;DHT22;10761;48.532;8.026;2023-04-03T17:22:24;6.40;92.90
21207;DHT22;10761;48.532;8.026;2023-04-03T17:24:50;6.30;87.90
21207;DHT22;10761;48.532;8.026;2023-04-03T17:27:16;6.30;92.50
21207;DHT22;10761;48.532;8.026;2023-04-03T17:29:41;6.30;87.50
21207;DHT22;10761;48.532;8.026;2023-04-03T17:32:07;6.30;95.00
21207;DHT22;10761;48.532;8.026;2023-04-03T17:34:33;6.20;96.50
21207;DHT22;10761;48.532;8.026;2023-04-03T17:36:58;6.20;99.90
21207;DHT22;10761;48.532;8.026;2023-04-03T17:39:24;6.10;99.90
21207;DHT22;10761;48.532;8.026;2023-04-03T17:41:49;6.00;99.90
21207;DHT22;10761;48.532;8.026;2023-04-03T17:44:15;5.90;99.90
21207;DHT22;10761;48.532;8.026;2023-04-03T17:46:41;5.90;99.90
21207;DHT22;10761;48.532;8.026;2023-04-03T17:49:07;5.80;99.90